Time,TemperatureF,DewpointF,PressureIn,WindDirection,WindDirectionDegrees,WindSpeedMPH,WindSpeedGustMPH,Humidity,HourlyPrecipIn,Conditions,Clouds,dailyrainin,SoftwareType,DateUTC
2014-02-21 00:07:00,36.5,34.0,30.01,SW,229,5.0,7.0,90,0.00,,,0.00,weatherlink.com 1.10,2014-02-21 05:07:00,
2014-02-21 00:22:00,36.2,34.0,30.00,SW,227,5.0,8.0,90,0.00,,,0.00,weatherlink.com 1.10,2014-02-21 05:22:00,
2014-02-21 00:37:00,36.0,34.0,30.00,WSW,238,2.0,5.0,91,0.00,,,0.00,weatherlink.com 1.10,2014-02-21 05:37:00,
2014-02-21 00:52:00,36.1,34.0,30.00,SW,231,1.0,8.0,92,0.00,,,0.00,weatherlink.com 1.10,2014-02-21 05:52:00,
2014-02-21 01:07:00,36.1,34.0,29.99,SW,214,3.0,5.0,92,0.00,,,0.00,weatherlink.com 1.10,2014-02-21 06:07:00,
2014-02-21 01:22:00,36.0,34.0,29.99,SW,235,0.0,4.0,93,0.00,,,0.00,weatherlink.com 1.10,2014-02-21 06:22:00,
2014-02-21 01:37:00,35.8,34.0,29.98,WSW,246,1.0,4.0,93,0.00,,,0.00,weatherlink.com 1.10,2014-02-21 06:37:00,
2014-02-21 01:52:00,35.6,34.0,29.99,WSW,246,1.0,1.0,94,0.00,,,0.00,weatherlink.com 1.10,2014-02-21 06:52:00,
2014-02-21 02:07:00,35.2,34.0,29.97,WSW,246,0.0,2.0,94,0.03,,,0.03,weatherlink.com 1.10,2014-02-21 07:07:00,
2014-02-21 02:22:00,35.1,34.0,29.96,WSW,246,1.0,2.0,94,0.04,,,0.04,weatherlink.com 1.10,2014-02-21 07:22:00,
2014-02-21 02:37:00,35.3,34.0,29.96,WSW,253,4.0,7.0,95,0.04,,,0.04,weatherlink.com 1.10,2014-02-21 07:37:00,
2014-02-21 02:52:00,35.2,34.0,29.95,West,263,4.0,6.0,95,0.04,,,0.04,weatherlink.com 1.10,2014-02-21 07:52:00,
2014-02-21 03:07:00,35.2,34.0,29.95,WNW,290,4.0,7.0,95,0.01,,,0.04,weatherlink.com 1.10,2014-02-21 08:07:00,
2014-02-21 03:22:00,35.2,34.0,29.95,West,277,4.0,7.0,96,0.00,,,0.04,weatherlink.com 1.10,2014-02-21 08:22:00,
2014-02-21 03:37:00,35.2,34.0,29.95,WSW,246,1.0,4.0,96,0.00,,,0.04,weatherlink.com 1.10,2014-02-21 08:37:00,
2014-02-21 03:52:00,35.2,34.0,29.94,WSW,246,0.0,2.0,96,0.00,,,0.04,weatherlink.com 1.10,2014-02-21 08:52:00,
2014-02-21 04:07:00,34.7,34.0,29.95,WSW,241,0.0,1.0,95,0.00,,,0.04,weatherlink.com 1.10,2014-02-21 09:07:00,
2014-02-21 04:22:00,34.7,34.0,29.95,WSW,241,0.0,2.0,96,0.00,,,0.04,weatherlink.com 1.10,2014-02-21 09:22:00,
2014-02-21 04:37:00,34.7,34.0,29.95,SW,220,0.0,1.0,96,0.00,,,0.04,weatherlink.com 1.10,2014-02-21 09:37:00,
2014-02-21 04:52:00,34.7,34.0,29.94,SSW,207,1.0,3.0,96,0.00,,,0.04,weatherlink.com 1.10,2014-02-21 09:52:00,
2014-02-21 05:07:00,34.7,34.0,29.95,SSW,199,0.0,2.0,96,0.00,,,0.04,weatherlink.com 1.10,2014-02-21 10:07:00,
2014-02-21 05:22:00,34.6,34.0,29.95,SSW,199,0.0,1.0,96,0.00,,,0.04,weatherlink.com 1.10,2014-02-21 10:22:00,
2014-02-21 05:37:00,34.5,34.0,29.95,SSW,199,0.0,1.0,96,0.00,,,0.04,weatherlink.com 1.10,2014-02-21 10:37:00,
2014-02-21 05:52:00,34.6,34.0,29.95,SSW,199,0.0,1.0,96,0.00,,,0.04,weatherlink.com 1.10,2014-02-21 10:52:00,
2014-02-21 06:07:00,34.6,34.0,29.94,SSW,199,0.0,1.0,96,0.00,,,0.04,weatherlink.com 1.10,2014-02-21 11:07:00,
2014-02-21 06:22:00,34.7,34.0,29.94,SE,142,1.0,4.0,97,0.00,,,0.04,weatherlink.com 1.10,2014-02-21 11:22:00,
2014-02-21 06:37:00,35.0,34.0,29.93,SE,130,0.0,1.0,96,0.00,,,0.04,weatherlink.com 1.10,2014-02-21 11:37:00,
2014-02-21 06:52:00,35.3,35.0,29.93,West,275,2.0,3.0,97,0.00,,,0.04,weatherlink.com 1.10,2014-02-21 11:52:00,
2014-02-21 07:08:00,36.1,35.0,29.93,WSW,242,1.0,3.0,97,0.00,,,0.04,weatherlink.com 1.10,2014-02-21 12:08:00,
2014-02-21 07:23:00,36.3,36.0,29.93,SW,224,2.0,4.0,97,0.00,,,0.04,weatherlink.com 1.10,2014-02-21 12:23:00,
2014-02-21 07:38:00,36.4,36.0,29.91,WSW,242,1.0,3.0,97,0.00,,,0.04,weatherlink.com 1.10,2014-02-21 12:38:00,
2014-02-21 07:53:00,36.5,36.0,29.90,WSW,244,1.0,3.0,97,0.00,,,0.04,weatherlink.com 1.10,2014-02-21 12:53:00,
2014-02-21 08:08:00,36.6,36.0,29.90,WSW,251,2.0,4.0,97,0.00,,,0.04,weatherlink.com 1.10,2014-02-21 13:08:00,
2014-02-21 08:23:00,36.7,36.0,29.90,WSW,257,2.0,4.0,97,0.00,,,0.04,weatherlink.com 1.10,2014-02-21 13:23:00,
2014-02-21 08:38:00,36.8,36.0,29.90,WSW,253,2.0,5.0,97,0.00,,,0.04,weatherlink.com 1.10,2014-02-21 13:38:00,
2014-02-21 08:53:00,37.0,36.0,29.89,WSW,242,2.0,5.0,97,0.00,,,0.04,weatherlink.com 1.10,2014-02-21 13:53:00,
2014-02-21 09:08:00,37.2,37.0,29.89,WSW,237,2.0,4.0,97,0.00,,,0.04,weatherlink.com 1.10,2014-02-21 14:08:00,
2014-02-21 09:23:00,37.2,37.0,29.88,SW,235,1.0,4.0,97,0.00,,,0.04,weatherlink.com 1.10,2014-02-21 14:23:00,
2014-02-21 09:38:00,37.3,36.0,29.87,West,259,2.0,7.0,96,0.01,,,0.05,weatherlink.com 1.10,2014-02-21 14:38:00,
2014-02-21 09:53:00,37.2,36.0,29.87,WSW,248,1.0,5.0,96,0.01,,,0.05,weatherlink.com 1.10,2014-02-21 14:53:00,
2014-02-21 10:08:00,37.3,36.0,29.86,West,271,4.0,8.0,96,0.01,,,0.05,weatherlink.com 1.10,2014-02-21 15:08:00,
2014-02-21 10:23:00,37.3,36.0,29.85,West,281,1.0,6.0,96,0.02,,,0.06,weatherlink.com 1.10,2014-02-21 15:23:00,
2014-02-21 10:38:00,37.4,36.0,29.85,WSW,251,2.0,7.0,96,0.01,,,0.06,weatherlink.com 1.10,2014-02-21 15:38:00,
2014-02-21 10:53:00,37.5,37.0,29.84,WSW,254,5.0,7.0,96,0.02,,,0.07,weatherlink.com 1.10,2014-02-21 15:53:00,
2014-02-21 11:08:00,37.5,37.0,29.84,West,260,7.0,9.0,96,0.02,,,0.07,weatherlink.com 1.10,2014-02-21 16:08:00,
2014-02-21 11:23:00,37.5,37.0,29.83,West,272,3.0,5.0,96,0.01,,,0.07,weatherlink.com 1.10,2014-02-21 16:23:00,
2014-02-21 11:38:00,37.6,37.0,29.82,WSW,256,1.0,5.0,96,0.02,,,0.08,weatherlink.com 1.10,2014-02-21 16:38:00,
2014-02-21 11:53:00,37.7,37.0,29.80,SW,223,0.0,3.0,96,0.01,,,0.08,weatherlink.com 1.10,2014-02-21 16:53:00,
2014-02-21 12:08:00,37.7,37.0,29.79,SW,223,0.0,2.0,96,0.01,,,0.08,weatherlink.com 1.10,2014-02-21 17:08:00,
2014-02-21 12:23:00,37.8,37.0,29.77,SW,223,0.0,1.0,96,0.01,,,0.08,weatherlink.com 1.10,2014-02-21 17:23:00,
2014-02-21 12:38:00,37.7,37.0,29.75,WSW,257,3.0,7.0,96,0.00,,,0.08,weatherlink.com 1.10,2014-02-21 17:38:00,
2014-02-21 12:53:00,37.7,37.0,29.74,WSW,248,1.0,4.0,96,0.00,,,0.08,weatherlink.com 1.10,2014-02-21 17:53:00,
2014-02-21 13:08:00,37.7,37.0,29.72,WSW,244,3.0,6.0,96,0.00,,,0.08,weatherlink.com 1.10,2014-02-21 18:08:00,
2014-02-21 13:23:00,37.8,37.0,29.70,WSW,250,2.0,6.0,96,0.00,,,0.08,weatherlink.com 1.10,2014-02-21 18:23:00,
2014-02-21 14:08:00,38.0,37.0,29.66,West,267,2.0,3.0,96,0.00,,,0.08,weatherlink.com 1.10,2014-02-21 19:08:00,
2014-02-21 14:24:00,38.2,37.0,29.66,WSW,253,2.0,4.0,96,0.01,,,0.09,weatherlink.com 1.10,2014-02-21 19:24:00,
2014-02-21 14:54:00,38.3,38.0,29.65,WSW,240,2.0,7.0,97,0.02,,,0.10,weatherlink.com 1.10,2014-02-21 19:54:00,
2014-02-21 15:09:00,38.3,38.0,29.64,WSW,242,1.0,2.0,97,0.02,,,0.10,weatherlink.com 1.10,2014-02-21 20:09:00,
2014-02-21 15:24:00,37.9,37.0,29.66,WSW,242,0.0,2.0,96,0.01,,,0.10,weatherlink.com 1.10,2014-02-21 20:24:00,
2014-02-21 15:39:00,37.9,37.0,29.69,West,279,1.0,3.0,97,0.04,,,0.13,weatherlink.com 1.10,2014-02-21 20:39:00,
2014-02-21 15:54:00,38.7,38.0,29.68,South,188,3.0,3.0,97,0.11,,,0.21,weatherlink.com 1.10,2014-02-21 20:54:00,
2014-02-21 16:09:00,38.6,38.0,29.66,East,79,1.0,3.0,97,0.11,,,0.21,weatherlink.com 1.10,2014-02-21 21:09:00,
2014-02-21 16:24:00,38.4,38.0,29.67,SSW,193,3.0,5.0,97,0.11,,,0.21,weatherlink.com 1.10,2014-02-21 21:24:00,
2014-02-21 16:39:00,37.8,37.0,29.71,NW,310,2.0,3.0,97,0.08,,,0.22,weatherlink.com 1.10,2014-02-21 21:39:00,
2014-02-21 16:54:00,38.0,37.0,29.73,NE,41,3.0,5.0,97,0.05,,,0.26,weatherlink.com 1.10,2014-02-21 21:54:00,
2014-02-21 17:09:00,38.3,38.0,29.74,East,87,1.0,6.0,97,0.05,,,0.26,weatherlink.com 1.10,2014-02-21 22:09:00,
2014-02-21 17:24:00,38.0,37.0,29.75,SE,136,1.0,3.0,97,0.06,,,0.27,weatherlink.com 1.10,2014-02-21 22:24:00,
2014-02-21 17:39:00,37.6,37.0,29.72,ESE,122,1.0,2.0,97,0.05,,,0.28,weatherlink.com 1.10,2014-02-21 22:39:00,
2014-02-21 17:54:00,38.9,38.0,29.71,East,80,3.0,7.0,97,0.02,,,0.28,weatherlink.com 1.10,2014-02-21 22:54:00,
2014-02-21 18:09:00,39.2,39.0,29.71,ENE,71,2.0,6.0,97,0.02,,,0.28,weatherlink.com 1.10,2014-02-21 23:09:00,
2014-02-21 18:24:00,39.1,38.0,29.72,East,96,1.0,6.0,97,0.01,,,0.28,weatherlink.com 1.10,2014-02-21 23:24:00,
2014-02-21 18:39:00,38.6,38.0,29.74,East,90,1.0,3.0,97,0.00,,,0.28,weatherlink.com 1.10,2014-02-21 23:39:00,
2014-02-21 18:54:00,37.9,37.0,29.75,ENE,70,1.0,2.0,97,0.00,,,0.28,weatherlink.com 1.10,2014-02-21 23:54:00,
2014-02-21 19:09:00,37.7,37.0,29.76,NNW,348,2.0,4.0,97,0.00,,,0.28,weatherlink.com 1.10,2014-02-22 00:09:00,
2014-02-21 19:24:00,37.7,37.0,29.77,North,5,2.0,3.0,97,0.00,,,0.28,weatherlink.com 1.10,2014-02-22 00:24:00,
2014-02-21 19:39:00,37.3,36.0,29.77,NNE,25,1.0,2.0,96,0.00,,,0.28,weatherlink.com 1.10,2014-02-22 00:39:00,
2014-02-21 19:54:00,35.7,34.0,29.79,NNE,25,0.0,2.0,95,0.00,,,0.28,weatherlink.com 1.10,2014-02-22 00:54:00,
2014-02-21 20:09:00,33.7,33.0,29.80,North,5,1.0,2.0,95,0.01,,,0.29,weatherlink.com 1.10,2014-02-22 01:09:00,
2014-02-21 20:24:00,33.0,32.0,29.80,NW,323,1.0,3.0,96,0.01,,,0.29,weatherlink.com 1.10,2014-02-22 01:24:00,
2014-02-21 20:39:00,32.3,31.0,29.80,NW,323,1.0,2.0,96,0.01,,,0.29,weatherlink.com 1.10,2014-02-22 01:39:00,
2014-02-21 20:54:00,31.7,31.0,29.81,West,261,1.0,2.0,96,0.01,,,0.29,weatherlink.com 1.10,2014-02-22 01:54:00,
2014-02-21 21:09:00,31.3,30.0,29.81,WNW,296,1.0,3.0,96,0.00,,,0.29,weatherlink.com 1.10,2014-02-22 02:09:00,
2014-02-21 21:24:00,31.2,30.0,29.80,WNW,296,1.0,2.0,96,0.00,,,0.29,weatherlink.com 1.10,2014-02-22 02:24:00,
2014-02-21 21:39:00,30.7,30.0,29.80,WNW,296,0.0,0.0,97,0.00,,,0.29,weatherlink.com 1.10,2014-02-22 02:39:00,
2014-02-21 21:54:00,30.7,30.0,29.80,NW,306,1.0,5.0,97,0.00,,,0.29,weatherlink.com 1.10,2014-02-22 02:54:00,
2014-02-21 22:09:00,31.0,30.0,29.80,WNW,296,2.0,3.0,97,0.00,,,0.29,weatherlink.com 1.10,2014-02-22 03:09:00,
2014-02-21 22:24:00,32.6,32.0,29.81,WSW,246,1.0,3.0,97,0.00,,,0.29,weatherlink.com 1.10,2014-02-22 03:24:00,
2014-02-21 22:39:00,32.9,32.0,29.81,West,264,3.0,7.0,97,0.00,,,0.29,weatherlink.com 1.10,2014-02-22 03:39:00,
2014-02-21 22:54:00,33.6,33.0,29.82,WSW,240,2.0,8.0,98,0.00,,,0.29,weatherlink.com 1.10,2014-02-22 03:54:00,
2014-02-21 23:09:00,33.8,33.0,29.83,WSW,254,4.0,9.0,98,0.00,,,0.29,weatherlink.com 1.10,2014-02-22 04:09:00,
2014-02-21 23:24:00,34.3,34.0,29.83,West,266,7.0,8.0,98,0.00,,,0.29,weatherlink.com 1.10,2014-02-22 04:24:00,
2014-02-21 23:39:00,33.9,33.0,29.83,WSW,247,5.0,7.0,97,0.00,,,0.29,weatherlink.com 1.10,2014-02-22 04:39:00,
2014-02-21 23:54:00,33.8,33.0,29.83,WSW,240,2.0,8.0,97,0.00,,,0.29,weatherlink.com 1.10,2014-02-22 04:54:00,